Briefing drone pour La rochette

Rechercher une autre localisation

Conditions de vol :


Nous sommes le : Vendredi 07 mai 2021
Il est 01:02 UTC (03:02 LT)

Lever de soleil : 03:48 UTC (05:48 LT)
Coucher de soleil : 19:15 UTC (21:15 LT)

Météo

L'essentiel des conditions de vol

VIGILANCE MÉTÉO FRANCE - Savoie (73)
Vigilance Jaune : Pluie-inondation / Avalanches
CARTE TEMSI
CARTES DES FRONTS
METAR de LFLB
LFLB 070030Z AUTO 03006KT 340V090 5000 RA BR FEW029/// BKN044/// BKN054/// ///TCU 13/10 Q1014

Date d'émission: 07/05/2021
Heure d'émission: 00:30 UTC
Vent: 030° (variable du 340° au 090°) pour 6 KT (11 km/h)
Visibilité horizontale: 5000 m
Plafond :
- Peu de nuages à 2900ft (884m)
- Nuages morcelés à 4400ft (1341m)
- Nuages morcelés à 5400ft (1646m)
Température: 13 °C
Point de rosée: 10 °C
Humidité: 82%
Pression (QNH): 1014 hPa
Conditions: Pluie
TAF de LFLB
LFLB 061903Z 0619/0715 CNL

Conditions prévues :

Heure d'émission : Bulletin éffectué le 06 à 19:00 UTC
Prévision : Valide du 06 a 19:00 UTC au 07 a 15:00 UTC
Nuages : à 0ft (0 m)
WEBCAM POUR LA ROCHETTE

Réglementation

Voler en sécurité

CARTES AERONAUTIQUE 1/500.000
CARTES VAC (LFLB)
SUP AIP




Chargement des AIP...
NOTAM (LA ROCHETTE + Terrain à proximité / FIR )




Chargement des NOTAMS...
CONTACT PREFECTURE 73


Avertissement : Les données mises à disposition sont indicatives. Oxygène Drone ne pourra être tenu responsable de dégâts causés aux biens et aux personnes.